createdAt,value
2023-04-08T00:00:53.807Z,102176.00
2023-04-08T00:03:55.080Z,102166.44
2023-04-08T00:06:55.810Z,102172.31
2023-04-08T00:09:56.869Z,102171.88
2023-04-08T00:12:57.833Z,102178.38
2023-04-08T00:15:58.864Z,102181.88
2023-04-08T00:18:59.812Z,102174.06
2023-04-08T00:22:00.878Z,102181.25
2023-04-08T00:25:01.828Z,102179.44
2023-04-08T00:28:02.882Z,102174.25
2023-04-08T00:31:03.865Z,102179.69
2023-04-08T00:34:04.855Z,102179.44
2023-04-08T00:37:05.810Z,102174.06
2023-04-08T00:40:06.841Z,102180.84
2023-04-08T00:43:07.816Z,102179.69
2023-04-08T00:46:08.893Z,102184.47
2023-04-08T00:49:09.817Z,102177.44
2023-04-08T00:52:11.025Z,102177.69
2023-04-08T00:55:11.826Z,102175.13
2023-04-08T00:58:12.846Z,102180.97
2023-04-08T01:01:23.871Z,102184.16
2023-04-08T01:04:34.855Z,102181.78
2023-04-08T01:07:45.835Z,102182.88
2023-04-08T01:10:49.861Z,102184.47
2023-04-08T01:13:59.820Z,102188.81
2023-04-08T01:17:00.859Z,102192.00
2023-04-08T01:20:01.818Z,102195.72
2023-04-08T01:23:14.862Z,102195.59
2023-04-08T01:26:15.787Z,102195.59
2023-04-08T01:29:18.853Z,102193.06
2023-04-08T01:32:20.876Z,102201.84
2023-04-08T01:35:21.857Z,102194.59
2023-04-08T01:38:27.792Z,102189.28
2023-04-08T01:41:30.868Z,102191.03
2023-04-08T01:44:31.785Z,102187.97
2023-04-08T01:47:32.922Z,102188.28
2023-04-08T01:50:33.781Z,102199.97
2023-04-08T01:53:35.066Z,102193.31
2023-04-08T01:56:35.789Z,102192.09
2023-04-08T01:59:37.848Z,102196.13
2023-04-08T02:02:33.109Z,102201.84
2023-04-08T02:05:33.909Z,102201.16
2023-04-08T02:08:34.804Z,102187.63
2023-04-08T02:11:35.811Z,102202.50
2023-04-08T02:14:36.817Z,102204.22
2023-04-08T02:17:49.953Z,102200.88
2023-04-08T02:21:01.816Z,102199.84
2023-04-08T02:24:03.991Z,102205.47
2023-04-08T02:27:05.814Z,102205.34
2023-04-08T02:30:07.858Z,102203.28
2023-04-08T02:33:10.808Z,102209.09
2023-04-08T02:36:11.839Z,102215.75
2023-04-08T02:39:12.788Z,102209.88
2023-04-08T02:42:15.860Z,102204.69
2023-04-08T02:45:16.828Z,102212.25
2023-04-08T02:48:17.856Z,102211.59
2023-04-08T02:51:18.806Z,102211.44
2023-04-08T02:54:19.902Z,102218.34
2023-04-08T02:57:20.794Z,102225.31
2023-04-08T03:00:21.848Z,102235.72
2023-04-08T03:03:16.094Z,102235.91
2023-04-08T03:06:16.820Z,102242.44
2023-04-08T03:09:17.768Z,102232.19
2023-04-08T03:12:18.848Z,102233.91
2023-04-08T03:15:19.785Z,102234.00
2023-04-08T03:18:20.833Z,102226.91
2023-04-08T03:21:21.846Z,102235.66
2023-04-08T03:24:22.835Z,102227.28
2023-04-08T03:27:23.800Z,102232.38
2023-04-08T03:30:24.841Z,102228.69
2023-04-08T03:33:25.798Z,102231.56
2023-04-08T03:36:26.829Z,102234.53
2023-04-08T03:39:27.800Z,102232.78
2023-04-08T03:42:28.836Z,102231.31
2023-04-08T03:45:29.810Z,102234.88
2023-04-08T03:48:30.801Z,102239.19
2023-04-08T03:51:31.811Z,102247.34
2023-04-08T03:54:33.111Z,102241.09
2023-04-08T03:57:33.784Z,102248.72
2023-04-08T04:00:34.832Z,102256.44
2023-04-08T04:03:35.850Z,102254.50
2023-04-08T04:06:36.801Z,102255.13
2023-04-08T04:09:37.785Z,102243.38
2023-04-08T04:12:38.819Z,102240.69
2023-04-08T04:15:39.917Z,102252.88
2023-04-08T04:18:40.833Z,102242.06
2023-04-08T04:21:41.784Z,102256.78
2023-04-08T04:24:42.823Z,102245.72
2023-04-08T04:27:43.784Z,102258.53
2023-04-08T04:30:44.875Z,102258.84
2023-04-08T04:33:45.811Z,102258.88
2023-04-08T04:36:46.825Z,102260.88
2023-04-08T04:39:47.776Z,102264.94
2023-04-08T04:42:48.913Z,102264.94
2023-04-08T04:45:49.795Z,102272.91
2023-04-08T04:48:50.993Z,102266.88
2023-04-08T04:51:51.775Z,102277.53
2023-04-08T04:54:52.996Z,102283.16
2023-04-08T04:57:53.772Z,102281.84
2023-04-08T05:00:54.815Z,102280.97
2023-04-08T05:03:55.791Z,102297.50
2023-04-08T05:06:56.850Z,102286.03
2023-04-08T05:09:57.783Z,102286.91
2023-04-08T05:12:58.833Z,102284.91
2023-04-08T05:15:59.832Z,102290.16
2023-04-08T05:19:00.830Z,102288.22
2023-04-08T05:22:01.838Z,102286.03
2023-04-08T05:25:02.807Z,102293.44
2023-04-08T05:28:03.782Z,102289.94
2023-04-08T05:31:04.835Z,102289.19
2023-04-08T05:34:05.791Z,102292.28
2023-04-08T05:37:06.807Z,102290.34
2023-04-08T05:40:07.764Z,102295.56
2023-04-08T05:43:08.832Z,102301.00
2023-04-08T05:46:09.792Z,102294.72
2023-04-08T05:49:10.835Z,102301.72
2023-04-08T05:52:11.779Z,102303.16
2023-04-08T05:55:13.009Z,102304.88
2023-04-08T05:58:13.787Z,102301.41
2023-04-08T06:01:14.819Z,102301.72
2023-04-08T06:04:15.839Z,102300.88
2023-04-08T06:07:16.851Z,102311.44
2023-04-08T06:10:17.776Z,102312.19
2023-04-08T06:13:18.822Z,102310.47
2023-04-08T06:16:25.835Z,102314.13
2023-04-08T06:19:26.832Z,102323.16
2023-04-08T06:22:27.766Z,102327.94
2023-04-08T06:25:28.810Z,102334.91
2023-04-08T06:28:29.757Z,102328.34
2023-04-08T06:31:31.838Z,102337.91
2023-04-08T06:34:32.776Z,102332.81
2023-04-08T06:37:33.787Z,102348.03
2023-04-08T06:40:34.763Z,102357.03
2023-04-08T06:43:35.817Z,102363.00
2023-04-08T06:46:36.754Z,102355.69
2023-04-08T06:49:37.792Z,102369.59
2023-04-08T06:52:38.758Z,102361.84
2023-04-08T06:55:39.926Z,102366.09
2023-04-08T06:58:40.762Z,102361.97
2023-04-08T07:01:41.913Z,102370.38
2023-04-08T07:04:43.894Z,102374.69
2023-04-08T07:07:45.790Z,102379.72
2023-04-08T07:10:46.767Z,102373.59
2023-04-08T07:13:47.797Z,102382.56
2023-04-08T07:16:48.820Z,102376.81
2023-04-08T07:19:50.796Z,102385.25
2023-04-08T07:22:51.781Z,102395.31
2023-04-08T07:25:52.817Z,102397.53
2023-04-08T07:28:53.761Z,102400.22
2023-04-08T07:31:54.797Z,102401.22
2023-04-08T07:34:55.751Z,102402.59
2023-04-08T07:37:56.811Z,102404.28
2023-04-08T07:40:57.804Z,102407.13
2023-04-08T07:43:58.822Z,102402.97
2023-04-08T07:46:59.761Z,102413.97
2023-04-08T07:50:00.779Z,102402.16
2023-04-08T07:53:01.747Z,102406.25
2023-04-08T07:56:02.845Z,102400.03
2023-04-08T07:59:03.767Z,102401.75
2023-04-08T08:02:04.812Z,102398.66
2023-04-08T08:05:05.837Z,102400.41
2023-04-08T08:08:06.774Z,102400.25
2023-04-08T08:11:07.763Z,102404.03
2023-04-08T08:14:08.792Z,102406.47
2023-04-08T08:17:09.809Z,102408.38
2023-04-08T08:20:11.792Z,102409.72
2023-04-08T08:23:12.822Z,102415.75
2023-04-08T08:26:17.852Z,102409.59
2023-04-08T08:29:18.740Z,102401.50
2023-04-08T08:32:20.787Z,102415.91
2023-04-08T08:35:21.728Z,102412.84
2023-04-08T08:38:23.803Z,102418.88
2023-04-08T08:41:24.734Z,102412.44
2023-04-08T08:44:25.789Z,102404.09
2023-04-08T08:47:26.768Z,102416.72
2023-04-08T08:50:27.802Z,102415.09
2023-04-08T08:53:29.740Z,102415.75
2023-04-08T08:56:30.971Z,102424.31
2023-04-08T08:59:31.734Z,102436.88
2023-04-08T09:02:42.899Z,102426.84
2023-04-08T09:05:43.909Z,102434.03
2023-04-08T09:08:44.800Z,102439.22
2023-04-08T09:11:46.769Z,102441.16
2023-04-08T09:14:47.780Z,102444.47
2023-04-08T09:17:48.764Z,102441.81
2023-04-08T09:20:49.765Z,102448.34
2023-04-08T09:23:54.922Z,102447.56
2023-04-08T09:26:59.829Z,102445.91
2023-04-08T09:30:00.739Z,102451.47
2023-04-08T09:33:04.833Z,102441.75
2023-04-08T09:36:05.745Z,102444.28
2023-04-08T09:39:06.766Z,102443.44
2023-04-08T09:42:08.795Z,102447.34
2023-04-08T09:45:09.794Z,102448.56
2023-04-08T09:48:14.451Z,102457.06
2023-04-08T09:51:16.769Z,102458.81
2023-04-08T09:54:20.738Z,102459.63
2023-04-08T09:57:26.846Z,102457.28
2023-04-08T10:00:28.714Z,102450.66
2023-04-08T10:03:39.853Z,102451.25
2023-04-08T10:06:41.718Z,102446.03
2023-04-08T10:09:42.772Z,102456.38
2023-04-08T10:12:43.763Z,102445.44
2023-04-08T10:15:47.782Z,102456.88
2023-04-08T10:18:49.728Z,102444.88
2023-04-08T10:21:54.777Z,102452.25
2023-04-08T10:25:15.754Z,102444.97
2023-04-08T10:28:36.768Z,102445.63
2023-04-08T10:31:37.771Z,102451.66
2023-04-08T10:34:38.764Z,102440.78
2023-04-08T10:37:39.721Z,102447.59
2023-04-08T10:40:40.781Z,102450.16
2023-04-08T10:43:45.718Z,102440.97
2023-04-08T10:46:51.786Z,102444.16
2023-04-08T10:49:52.698Z,102455.94
2023-04-08T10:53:03.768Z,102453.78
2023-04-08T10:56:05.765Z,102450.88
2023-04-08T10:59:09.813Z,102456.31
2023-04-08T11:02:10.830Z,102457.69
2023-04-08T11:05:11.766Z,102458.25
2023-04-08T11:08:08.386Z,102460.72
2023-04-08T11:11:01.763Z,102464.75
2023-04-08T11:14:02.731Z,102461.50
2023-04-08T11:17:03.759Z,102468.13
2023-04-08T11:20:08.722Z,102466.38
2023-04-08T11:23:09.747Z,102468.59
2023-04-08T11:26:10.727Z,102468.41
2023-04-08T11:29:11.748Z,102461.31
2023-04-08T11:32:12.735Z,102464.06
2023-04-08T11:35:13.760Z,102471.22
2023-04-08T11:38:17.741Z,102464.63
2023-04-08T11:41:18.769Z,102461.34
2023-04-08T11:44:19.707Z,102465.19
2023-04-08T11:47:20.772Z,102461.50
2023-04-08T11:50:21.721Z,102459.38
2023-04-08T11:53:31.780Z,102465.03
2023-04-08T11:56:32.703Z,102465.72
2023-04-08T11:59:33.815Z,102462.50
2023-04-08T12:02:34.797Z,102470.84
2023-04-08T12:05:35.771Z,102464.81
2023-04-08T12:08:36.736Z,102461.72
2023-04-08T12:11:37.781Z,102459.56
2023-04-08T12:14:38.738Z,102466.00
2023-04-08T12:17:39.801Z,102463.03
2023-04-08T12:20:40.714Z,102456.28
2023-04-08T12:23:41.757Z,102456.94
2023-04-08T12:26:42.712Z,102462.16
2023-04-08T12:29:43.742Z,102451.81
2023-04-08T12:32:44.765Z,102456.28
2023-04-08T12:35:45.767Z,102454.13
2023-04-08T12:38:46.738Z,102450.25
2023-04-08T12:41:47.767Z,102457.19
2023-04-08T12:44:48.701Z,102452.91
2023-04-08T12:47:49.774Z,102453.97
2023-04-08T12:50:50.724Z,102451.38
2023-04-08T12:53:51.753Z,102449.41
2023-04-08T12:56:52.728Z,102448.63
2023-04-08T12:59:53.848Z,102445.94
2023-04-08T13:02:54.846Z,102443.78
2023-04-08T13:05:55.756Z,102441.63
2023-04-08T13:08:56.716Z,102438.69
2023-04-08T13:11:57.768Z,102435.88
2023-04-08T13:14:58.698Z,102439.34
2023-04-08T13:17:59.888Z,102436.31
2023-04-08T13:21:01.704Z,102433.72
2023-04-08T13:24:02.770Z,102432.50
2023-04-08T13:27:03.736Z,102436.97
2023-04-08T13:30:04.766Z,102414.34
2023-04-08T13:33:05.817Z,102438.47
2023-04-08T13:36:06.797Z,102427.59
2023-04-08T13:39:07.721Z,102430.53
2023-04-08T13:42:09.777Z,102419.75
2023-04-08T13:45:10.716Z,102419.81
2023-04-08T13:48:11.768Z,102417.69
2023-04-08T13:51:12.689Z,102415.41
2023-04-08T13:54:13.740Z,102415.63
2023-04-08T13:57:14.687Z,102420.50
2023-04-08T14:00:15.823Z,102414.00
2023-04-08T14:03:16.733Z,102415.19
2023-04-08T14:06:17.731Z,102414.59
2023-04-08T14:09:18.705Z,102414.00
2023-04-08T14:12:19.734Z,102405.19
2023-04-08T14:15:20.708Z,102412.25
2023-04-08T14:18:23.733Z,102404.84
2023-04-08T14:21:25.730Z,102391.03
2023-04-08T14:24:26.748Z,102395.47
2023-04-08T14:27:27.687Z,102393.75
2023-04-08T14:30:28.897Z,102400.72
2023-04-08T14:33:29.687Z,102395.16
2023-04-08T14:36:30.740Z,102395.59
2023-04-08T14:39:31.686Z,102391.16
2023-04-08T14:42:32.737Z,102397.22
2023-04-08T14:45:33.692Z,102396.56
2023-04-08T14:48:36.739Z,102394.19
2023-04-08T14:51:37.687Z,102396.47
2023-04-08T14:54:38.748Z,102398.06
2023-04-08T14:57:39.709Z,102393.09
2023-04-08T15:00:40.962Z,102394.59
2023-04-08T15:03:41.768Z,102393.75
2023-04-08T15:06:42.741Z,102395.06
2023-04-08T15:09:43.677Z,102395.72
2023-04-08T15:12:44.740Z,102395.72
2023-04-08T15:15:45.727Z,102397.44
2023-04-08T15:18:46.720Z,102399.47
2023-04-08T15:21:47.738Z,102402.59
2023-04-08T15:24:48.843Z,102386.97
2023-04-08T15:27:49.728Z,102388.97
2023-04-08T15:30:50.757Z,102385.44
2023-04-08T15:33:51.816Z,102382.41
2023-04-08T15:36:53.742Z,102377.59
2023-04-08T15:39:54.695Z,102377.22
2023-04-08T15:42:55.714Z,102380.72
2023-04-08T15:45:56.725Z,102384.81
2023-04-08T15:48:59.103Z,102384.41
2023-04-08T15:52:00.666Z,102377.09
2023-04-08T15:55:01.720Z,102378.00
2023-04-08T15:58:03.672Z,102386.81
2023-04-08T16:01:04.886Z,102387.63
2023-04-08T16:04:05.703Z,102386.09
2023-04-08T16:07:06.705Z,102391.31
2023-04-08T16:10:07.670Z,102388.91
2023-04-08T16:13:08.749Z,102394.56
2023-04-08T16:16:09.722Z,102391.47
2023-04-08T16:19:10.749Z,102395.19
2023-04-08T16:22:11.685Z,102391.53
2023-04-08T16:25:12.727Z,102393.72
2023-04-08T16:28:13.692Z,102388.69
2023-04-08T16:31:14.749Z,102400.91
2023-04-08T16:34:15.659Z,102391.00
2023-04-08T16:37:16.791Z,102388.69
2023-04-08T16:40:17.719Z,102395.66
2023-04-08T16:43:18.745Z,102402.00
2023-04-08T16:46:22.695Z,102397.69
2023-04-08T16:49:23.716Z,102405.91
2023-04-08T16:52:24.663Z,102398.03
2023-04-08T16:55:25.716Z,102407.31
2023-04-08T16:58:26.679Z,102399.84
2023-04-08T17:01:27.946Z,102406.66
2023-04-08T17:04:28.652Z,102404.53
2023-04-08T17:07:29.709Z,102410.44
2023-04-08T17:10:30.694Z,102405.81
2023-04-08T17:13:31.702Z,102409.94
2023-04-08T17:16:32.736Z,102410.38
2023-04-08T17:19:33.714Z,102419.78
2023-04-08T17:22:34.663Z,102412.66
2023-04-08T17:25:35.750Z,102418.41
2023-04-08T17:28:36.662Z,102422.34
2023-04-08T17:31:37.779Z,102417.56
2023-04-08T17:34:39.644Z,102414.06
2023-04-08T17:37:40.729Z,102421.69
2023-04-08T17:40:41.690Z,102420.81
2023-04-08T17:43:42.708Z,102421.91
2023-04-08T17:46:44.666Z,102419.66
2023-04-08T17:49:45.719Z,102417.25
2023-04-08T17:52:46.654Z,102423.69
2023-04-08T17:55:47.686Z,102430.44
2023-04-08T17:58:48.687Z,102428.47
2023-04-08T18:01:50.017Z,102434.53
2023-04-08T18:04:50.667Z,102435.63
2023-04-08T18:07:51.699Z,102427.81
2023-04-08T18:10:52.682Z,102422.56
2023-04-08T18:13:54.732Z,102431.28
2023-04-08T18:16:55.680Z,102428.63
2023-04-08T18:19:56.778Z,102426.81
2023-04-08T18:22:57.721Z,102420.81
2023-04-08T18:26:01.725Z,102420.81
2023-04-08T18:29:02.669Z,102416.41
2023-04-08T18:32:03.690Z,102416.78
2023-04-08T18:35:04.681Z,102434.84
2023-04-08T18:38:05.705Z,102423.00
2023-04-08T18:41:06.647Z,102424.09
2023-04-08T18:44:09.707Z,102424.50
2023-04-08T18:47:10.638Z,102429.56
2023-04-08T18:50:11.688Z,102417.63
2023-04-08T18:53:12.654Z,102428.47
2023-04-08T18:56:13.716Z,102420.81
2023-04-08T18:59:14.686Z,102436.19
2023-04-08T19:02:15.933Z,102435.63
2023-04-08T19:05:16.634Z,102436.22
2023-04-08T19:08:17.730Z,102430.97
2023-04-08T19:11:18.655Z,102430.56
2023-04-08T19:14:19.695Z,102430.94
2023-04-08T19:17:20.625Z,102427.13
2023-04-08T19:20:21.653Z,102424.41
2023-04-08T19:23:25.655Z,102421.81
2023-04-08T19:26:26.677Z,102412.31
2023-04-08T19:29:29.653Z,102418.03
2023-04-08T19:32:30.688Z,102421.50
2023-04-08T19:35:31.673Z,102424.41
2023-04-08T19:38:32.683Z,102416.94
2023-04-08T19:41:33.664Z,102419.50
2023-04-08T19:44:34.685Z,102417.97
2023-04-08T19:47:35.671Z,102433.09
2023-04-08T19:50:36.726Z,102430.56
2023-04-08T19:53:37.801Z,102436.78
2023-04-08T19:56:40.726Z,102439.44
2023-04-08T19:59:41.656Z,102435.94
2023-04-08T20:02:42.947Z,102432.44
2023-04-08T20:05:43.629Z,102422.41
2023-04-08T20:08:44.743Z,102429.72
2023-04-08T20:11:45.647Z,102418.72
2023-04-08T20:14:49.006Z,102418.47
2023-04-08T20:18:52.577Z,102427.47
2023-04-08T20:26:32.664Z,102430.81
2023-04-08T20:29:33.740Z,102427.13
2023-04-08T20:32:34.744Z,102436.59
2023-04-08T20:35:35.734Z,102421.84
2023-04-08T20:38:36.655Z,102419.91
2023-04-08T20:41:40.773Z,102423.63
2023-04-08T20:44:41.636Z,102432.25
2023-04-08T20:47:42.746Z,102415.81
2023-04-08T20:50:43.645Z,102416.41
2023-04-08T20:53:44.794Z,102428.44
2023-04-08T20:56:47.226Z,102433.09
2023-04-08T20:59:47.863Z,102424.56
2023-04-08T21:02:50.184Z,102422.72
2023-04-08T21:05:51.443Z,102429.75
2023-04-08T21:08:54.132Z,102430.66
2023-04-08T21:11:54.883Z,102419.66
2023-04-08T21:14:58.731Z,102420.81
2023-04-08T21:18:00.339Z,102422.69
2023-04-08T21:21:01.790Z,102425.44
2023-04-08T21:24:27.937Z,102433.28
2023-04-08T21:27:28.660Z,102429.13
2023-04-08T21:30:29.646Z,102421.09
2023-04-08T21:33:30.621Z,102422.66
2023-04-08T21:36:31.653Z,102423.41
2023-04-08T21:39:32.628Z,102427.66
2023-04-08T21:42:35.698Z,102421.25
2023-04-08T21:45:36.671Z,102426.53
2023-04-08T21:48:37.670Z,102419.38
2023-04-08T21:51:39.635Z,102413.72
2023-04-08T21:54:40.657Z,102419.50
2023-04-08T21:57:41.684Z,102408.09
2023-04-08T22:00:42.649Z,102415.13
2023-04-08T22:03:43.723Z,102415.44
2023-04-08T22:06:44.745Z,102412.47
2023-04-08T22:09:45.669Z,102408.56
2023-04-08T22:13:11.682Z,102410.25
2023-04-08T22:16:12.619Z,102410.38
2023-04-08T22:19:13.685Z,102412.00
2023-04-08T22:22:14.645Z,102415.63
2023-04-08T22:25:15.670Z,102414.97
2023-04-08T22:28:16.606Z,102412.06
2023-04-08T22:31:21.728Z,102403.97
2023-04-08T22:34:22.618Z,102402.25
2023-04-08T22:37:23.671Z,102395.25
2023-04-08T22:40:24.932Z,102399.78
2023-04-08T22:43:26.715Z,102393.34
2023-04-08T22:46:27.643Z,102397.78
2023-04-08T22:49:28.668Z,102395.44
2023-04-08T22:52:29.613Z,102397.13
2023-04-08T22:55:30.677Z,102396.22
2023-04-08T22:58:31.619Z,102405.09
2023-04-08T23:01:32.704Z,102395.91
2023-04-08T23:04:33.646Z,102404.97
2023-04-08T23:07:34.854Z,102401.75
2023-04-08T23:10:54.907Z,102404.88
2023-04-08T23:13:41.765Z,102393.44
2023-04-08T23:16:42.643Z,102403.69
2023-04-08T23:19:43.660Z,102391.16
2023-04-08T23:22:44.653Z,102398.69
2023-04-08T23:25:48.650Z,102388.66
2023-04-08T23:28:50.990Z,102391.19
2023-04-08T23:31:51.661Z,102394.50
2023-04-08T23:34:52.598Z,102400.50
2023-04-08T23:37:53.653Z,102390.41
2023-04-08T23:40:54.629Z,102392.00
2023-04-08T23:43:55.660Z,102392.34
2023-04-08T23:46:56.695Z,102388.50
2023-04-08T23:49:58.662Z,102389.13
2023-04-08T23:53:00.636Z,102394.56
2023-04-08T23:56:01.872Z,102386.81
2023-04-08T23:59:02.613Z,102382.72
